Time;durP1;ratioP1;P1;durP2;ratioP2;P2;SDS_P1;SDS_P2;PMS_P1;PMS_P2;Temp;Humidity;BMP_temperature;BMP_pressure;BME280_temperature;BME280_humidity;BME280_pressure;Samples;Min_cycle;Max_cycle;Signal;HPM_P1;HPM_P2
2022/02/17 01:51:30;;;;;;;13.82;10.68;;;;;;;;;;143729;591;46020;-64
2022/02/17 01:53:58;;;;;;;12.93;9.77;;;;;;;;;;143729;575;46022;-65
2022/02/17 01:56:27;;;;;;;12.68;8.93;;;;;;;;;;143729;612;46018;-65
2022/02/17 01:58:55;;;;;;;10.30;8.25;;;;;;;;;;143731;647;46012;-66
2022/02/17 02:01:22;;;;;;;12.55;10.07;;;;;;;;;;143728;591;46018;-66
2022/02/17 02:03:50;;;;;;;18.30;13.80;;;;;;;;;;143728;574;46012;-65
2022/02/17 02:06:17;;;;;;;17.25;12.60;;;;;;;;;;143727;581;46019;-65
2022/02/17 02:08:45;;;;;;;18.02;12.77;;;;;;;;;;143731;640;46023;-65
2022/02/17 02:11:13;;;;;;;14.27;9.93;;;;;;;;;;143727;653;46018;-65
2022/02/17 02:13:40;;;;;;;19.35;14.25;;;;;;;;;;143729;583;46013;-65
2022/02/17 02:16:07;;;;;;;14.40;10.73;;;;;;;;;;143728;572;46018;-65
2022/02/17 02:18:34;;;;;;;18.87;14.40;;;;;;;;;;143732;585;46012;-65
2022/02/17 02:21:03;;;;;;;18.98;14.25;;;;;;;;;;143728;579;46019;-64
2022/02/17 02:23:31;;;;;;;22.25;15.65;;;;;;;;;;143729;566;46012;-64
2022/02/17 02:25:58;;;;;;;15.32;11.30;;;;;;;;;;143728;587;46018;-63
2022/02/17 02:28:28;;;;;;;24.20;17.25;;;;;;;;;;143731;656;46013;-63
2022/02/17 02:30:56;;;;;;;28.27;20.73;;;;;;;;;;143727;619;46018;-64
2022/02/17 02:33:24;;;;;;;35.65;24.63;;;;;;;;;;143728;622;46012;-63
2022/02/17 02:35:52;;;;;;;25.10;18.52;;;;;;;;;;143727;663;46019;-63
2022/02/17 02:38:22;;;;;;;14.70;11.75;;;;;;;;;;143733;651;45033;-64
2022/02/17 02:40:49;;;;;;;26.58;18.45;;;;;;;;;;143727;577;46018;-64
2022/02/17 02:43:16;;;;;;;30.42;20.35;;;;;;;;;;143729;613;46012;-64
2022/02/17 02:45:43;;;;;;;31.27;20.27;;;;;;;;;;143727;574;46018;-64
2022/02/17 02:48:12;;;;;;;33.80;22.92;;;;;;;;;;143728;571;46022;-64
2022/02/17 02:50:39;;;;;;;36.88;25.90;;;;;;;;;;143725;615;46020;-64
2022/02/17 02:53:07;;;;;;;32.33;25.58;;;;;;;;;;143724;598;46920;-65
2022/02/17 02:55:35;;;;;;;40.60;28.98;;;;;;;;;;143727;581;46018;-64
2022/02/17 02:58:02;;;;;;;34.15;24.80;;;;;;;;;;143730;596;46012;-65
2022/02/17 03:00:29;;;;;;;37.20;25.80;;;;;;;;;;143725;608;46018;-65
2022/02/17 03:02:56;;;;;;;37.08;24.12;;;;;;;;;;143726;619;46012;-65
2022/02/17 03:05:23;;;;;;;33.33;23.02;;;;;;;;;;143726;618;46019;-65
2022/02/17 03:07:52;;;;;;;31.08;21.35;;;;;;;;;;143730;571;46012;-64
2022/02/17 03:10:19;;;;;;;45.92;29.48;;;;;;;;;;143725;591;46020;-64
2022/02/17 03:12:46;;;;;;;30.33;21.33;;;;;;;;;;143727;566;46012;-65
2022/02/17 03:15:14;;;;;;;41.08;25.90;;;;;;;;;;143726;660;46019;-64
2022/02/17 03:17:41;;;;;;;47.25;29.98;;;;;;;;;;143728;571;46022;-65
2022/02/17 03:20:08;;;;;;;29.80;20.23;;;;;;;;;;143725;587;46019;-65
2022/02/17 03:22:37;;;;;;;43.47;26.20;;;;;;;;;;143727;569;46012;-65
2022/02/17 03:25:05;;;;;;;33.85;22.02;;;;;;;;;;143725;621;46018;-65
2022/02/17 03:27:32;;;;;;;39.80;25.27;;;;;;;;;;143729;570;46023;-64
2022/02/17 03:29:59;;;;;;;36.65;22.85;;;;;;;;;;143726;600;46018;-64
2022/02/17 03:32:26;;;;;;;28.73;20.33;;;;;;;;;;143727;590;46012;-65
2022/02/17 03:34:54;;;;;;;41.05;25.40;;;;;;;;;;143726;583;46019;-65
2022/02/17 03:37:21;;;;;;;52.80;32.63;;;;;;;;;;143728;565;46023;-65
2022/02/17 03:39:48;;;;;;;47.92;30.48;;;;;;;;;;143725;624;46018;-64
2022/02/17 03:42:15;;;;;;;58.53;33.33;;;;;;;;;;143726;577;46023;-65
2022/02/17 03:44:42;;;;;;;54.75;33.03;;;;;;;;;;143726;621;46019;-65
2022/02/17 03:47:09;;;;;;;66.70;35.67;;;;;;;;;;143728;597;46022;-64
2022/02/17 03:49:37;;;;;;;66.72;33.63;;;;;;;;;;143724;595;46020;-64
2022/02/17 03:52:04;;;;;;;71.95;35.80;;;;;;;;;;143727;604;46012;-65
2022/02/17 03:54:31;;;;;;;45.50;27.37;;;;;;;;;;143726;648;46018;-64
2022/02/17 03:56:58;;;;;;;59.47;34.05;;;;;;;;;;143730;655;46013;-64
2022/02/17 03:59:25;;;;;;;58.75;30.02;;;;;;;;;;143726;591;46018;-63
2022/02/17 04:01:52;;;;;;;39.67;25.67;;;;;;;;;;143726;569;46012;-63
2022/02/17 04:04:19;;;;;;;51.25;29.35;;;;;;;;;;143727;574;46018;-63
2022/02/17 04:06:46;;;;;;;45.00;25.50;;;;;;;;;;143729;610;46023;-64
2022/02/17 04:09:13;;;;;;;38.45;23.25;;;;;;;;;;143725;587;46018;-64
2022/02/17 04:11:40;;;;;;;47.17;28.98;;;;;;;;;;143727;625;46013;-64
2022/02/17 04:14:07;;;;;;;51.90;30.80;;;;;;;;;;143725;586;46019;-64
2022/02/17 04:16:34;;;;;;;48.30;31.17;;;;;;;;;;143729;604;46014;-63
2022/02/17 04:19:01;;;;;;;44.42;28.87;;;;;;;;;;143726;590;46019;-63
2022/02/17 04:21:28;;;;;;;42.10;26.30;;;;;;;;;;143727;660;46012;-64
2022/02/17 04:23:55;;;;;;;42.25;25.27;;;;;;;;;;143726;586;46018;-64
2022/02/17 04:26:22;;;;;;;43.60;26.10;;;;;;;;;;143728;656;46022;-62
2022/02/17 04:28:50;;;;;;;33.88;21.85;;;;;;;;;;143726;599;46018;-63
2022/02/17 04:31:17;;;;;;;36.33;24.23;;;;;;;;;;143726;565;46012;-63
2022/02/17 04:33:45;;;;;;;36.50;24.58;;;;;;;;;;143727;620;46018;-64
2022/02/17 04:36:12;;;;;;;36.00;23.67;;;;;;;;;;143728;575;47012;-64
2022/02/17 04:38:39;;;;;;;31.25;19.75;;;;;;;;;;143725;617;46018;-64
2022/02/17 04:43:51;;;;;;;31.90;20.88;;;;;;;;;;143725;614;46019;-64
2022/02/17 04:46:18;;;;;;;41.28;25.27;;;;;;;;;;143729;604;46022;-64
2022/02/17 04:48:45;;;;;;;47.20;28.85;;;;;;;;;;143726;613;46019;-65
2022/02/17 04:51:13;;;;;;;52.55;30.05;;;;;;;;;;143726;603;46012;-65
2022/02/17 04:53:40;;;;;;;48.20;25.27;;;;;;;;;;143727;569;46018;-65
2022/02/17 04:56:07;;;;;;;55.45;27.70;;;;;;;;;;143729;592;46022;-65
2022/02/17 04:58:37;;;;;;;67.65;30.83;;;;;;;;;;143726;626;46018;-65
2022/02/17 05:01:05;;;;;;;63.40;30.62;;;;;;;;;;143727;586;46012;-66
2022/02/17 05:03:32;;;;;;;47.62;26.35;;;;;;;;;;143725;570;46018;-65
2022/02/17 05:05:59;;;;;;;66.28;34.42;;;;;;;;;;143729;581;46023;-66
2022/02/17 05:08:25;;;;;;;53.67;30.35;;;;;;;;;;143725;612;46018;-65
2022/02/17 05:10:52;;;;;;;55.20;31.90;;;;;;;;;;143727;604;46012;-65
2022/02/17 05:13:19;;;;;;;61.95;32.72;;;;;;;;;;143725;571;46019;-65
2022/02/17 05:15:47;;;;;;;52.58;30.60;;;;;;;;;;143728;587;46022;-66
2022/02/17 05:18:14;;;;;;;48.47;28.92;;;;;;;;;;143724;607;46018;-65
2022/02/17 05:20:41;;;;;;;45.22;25.85;;;;;;;;;;143727;614;46012;-64
2022/02/17 05:23:10;;;;;;;44.95;24.83;;;;;;;;;;143726;571;46018;-65
2022/02/17 05:25:40;;;;;;;51.53;31.20;;;;;;;;;;143730;569;46012;-64
2022/02/17 05:28:09;;;;;;;48.10;28.60;;;;;;;;;;143725;601;47018;-64
2022/02/17 05:30:41;;;;;;;43.85;25.12;;;;;;;;;;143727;585;46012;-66
2022/02/17 05:33:13;;;;;;;46.97;28.40;;;;;;;;;;143726;585;46018;-66
2022/02/17 05:35:41;;;;;;;47.55;28.35;;;;;;;;;;143730;638;46023;-65
2022/02/17 05:38:09;;;;;;;53.50;31.65;;;;;;;;;;143726;613;46018;-65
2022/02/17 05:40:36;;;;;;;50.25;32.70;;;;;;;;;;143726;588;46012;-66
2022/02/17 05:43:05;;;;;;;52.75;31.15;;;;;;;;;;143725;579;46018;-66
2022/02/17 05:45:32;;;;;;;49.72;31.12;;;;;;;;;;143727;654;46022;-65
2022/02/17 05:47:59;;;;;;;60.97;33.85;;;;;;;;;;143724;598;46019;-65
2022/02/17 05:50:26;;;;;;;64.43;36.30;;;;;;;;;;143726;610;47036;-65
2022/02/17 05:52:53;;;;;;;53.67;32.75;;;;;;;;;;143726;626;46018;-66
2022/02/17 05:55:20;;;;;;;59.80;34.42;;;;;;;;;;143730;572;46012;-65
2022/02/17 05:57:47;;;;;;;63.33;38.00;;;;;;;;;;143727;632;46018;-65
2022/02/17 06:00:15;;;;;;;66.78;39.95;;;;;;;;;;143726;585;46022;-65
2022/02/17 06:02:42;;;;;;;58.28;34.20;;;;;;;;;;143727;573;46018;-64
2022/02/17 06:05:10;;;;;;;60.63;35.47;;;;;;;;;;143729;594;46023;-65
2022/02/17 06:07:37;;;;;;;57.53;34.03;;;;;;;;;;143725;569;46020;-65
2022/02/17 06:10:05;;;;;;;52.92;29.77;;;;;;;;;;143728;607;46012;-65
2022/02/17 06:12:32;;;;;;;43.05;26.80;;;;;;;;;;143724;612;46019;-65
2022/02/17 06:15:00;;;;;;;36.45;22.98;;;;;;;;;;143729;586;46022;-65
2022/02/17 06:17:27;;;;;;;50.22;29.02;;;;;;;;;;143724;649;46018;-66
2022/02/17 06:19:54;;;;;;;57.97;34.55;;;;;;;;;;143727;623;46013;-65
2022/02/17 06:22:21;;;;;;;73.78;45.12;;;;;;;;;;143726;607;46018;-66
2022/02/17 06:24:48;;;;;;;60.33;38.42;;;;;;;;;;143730;566;46012;-65
2022/02/17 06:27:15;;;;;;;55.63;32.30;;;;;;;;;;143727;657;46019;-67
2022/02/17 06:29:42;;;;;;;46.83;28.50;;;;;;;;;;143725;576;46012;-67
2022/02/17 06:32:09;;;;;;;49.72;30.73;;;;;;;;;;143724;570;46018;-68
2022/02/17 06:34:35;;;;;;;46.00;30.08;;;;;;;;;;143728;625;46013;-68
2022/02/17 06:37:02;;;;;;;43.40;29.40;;;;;;;;;;143726;586;46018;-68
2022/02/17 06:39:30;;;;;;;44.47;28.30;;;;;;;;;;143727;584;46012;-68
2022/02/17 06:41:57;;;;;;;45.60;28.85;;;;;;;;;;143725;569;46019;-68
2022/02/17 06:44:24;;;;;;;39.88;28.42;;;;;;;;;;143728;572;46012;-67
2022/02/17 06:46:51;;;;;;;51.58;32.25;;;;;;;;;;143725;563;46020;-67
2022/02/17 06:49:18;;;;;;;62.75;37.80;;;;;;;;;;143727;599;46023;-66
2022/02/17 06:51:45;;;;;;;64.47;41.37;;;;;;;;;;143725;645;46018;-68
2022/02/17 06:54:12;;;;;;;40.10;27.33;;;;;;;;;;143727;590;46022;-67
2022/02/17 06:56:39;;;;;;;62.42;38.17;;;;;;;;;;143725;621;46019;-69
2022/02/17 06:59:06;;;;;;;58.15;36.63;;;;;;;;;;143727;633;46012;-70
2022/02/17 07:01:33;;;;;;;47.65;29.98;;;;;;;;;;143725;579;46018;-69
2022/02/17 07:04:00;;;;;;;37.47;23.12;;;;;;;;;;143730;648;46012;-70
2022/02/17 07:06:27;;;;;;;35.28;23.92;;;;;;;;;;143725;605;46021;-69
2022/02/17 07:08:54;;;;;;;32.80;22.35;;;;;;;;;;143726;577;46012;-70
2022/02/17 07:11:21;;;;;;;29.63;21.00;;;;;;;;;;143726;576;46019;-69
2022/02/17 07:13:48;;;;;;;31.90;21.55;;;;;;;;;;143729;683;46023;-68
2022/02/17 07:16:15;;;;;;;33.92;21.95;;;;;;;;;;143724;578;46020;-69
2022/02/17 07:18:44;;;;;;;30.00;20.25;;;;;;;;;;143726;614;46013;-69
2022/02/17 07:21:12;;;;;;;26.27;19.45;;;;;;;;;;143726;575;46018;-68
2022/02/17 07:23:38;;;;;;;27.48;18.27;;;;;;;;;;143729;618;46012;-68
2022/02/17 07:26:07;;;;;;;26.62;17.58;;;;;;;;;;143725;565;46019;-68
2022/02/17 07:28:35;;;;;;;21.23;15.30;;;;;;;;;;143727;575;46012;-68
2022/02/17 07:31:02;;;;;;;21.08;15.68;;;;;;;;;;143724;588;46018;-68
2022/02/17 07:33:29;;;;;;;22.37;15.02;;;;;;;;;;143728;587;46022;-67
2022/02/17 07:35:57;;;;;;;19.98;13.02;;;;;;;;;;143725;570;46021;-66
2022/02/17 07:38:24;;;;;;;16.87;12.75;;;;;;;;;;143727;646;46012;-67
2022/02/17 07:40:51;;;;;;;15.93;11.50;;;;;;;;;;143726;597;46018;-67
2022/02/17 07:43:18;;;;;;;14.15;10.98;;;;;;;;;;143730;575;46012;-66
2022/02/17 07:45:46;;;;;;;14.23;11.00;;;;;;;;;;143725;573;46020;-66
2022/02/17 07:48:13;;;;;;;16.25;11.07;;;;;;;;;;143727;586;46013;-66
2022/02/17 07:50:40;;;;;;;16.15;11.30;;;;;;;;;;143725;632;46019;-66
2022/02/17 07:53:07;;;;;;;13.48;10.00;;;;;;;;;;143728;569;46022;-66
2022/02/17 07:55:34;;;;;;;12.37;9.48;;;;;;;;;;143725;583;47019;-65
2022/02/17 07:58:05;;;;;;;14.43;9.25;;;;;;;;;;143727;626;46012;-65
2022/02/17 08:00:33;;;;;;;16.98;9.25;;;;;;;;;;143726;612;46018;-65
2022/02/17 08:03:00;;;;;;;12.52;9.30;;;;;;;;;;143728;605;46025;-64
2022/02/17 08:05:27;;;;;;;10.88;7.85;;;;;;;;;;143726;565;46018;-63
2022/02/17 08:07:54;;;;;;;12.32;7.00;;;;;;;;;;143726;585;46038;-64
2022/02/17 08:10:23;;;;;;;10.43;7.18;;;;;;;;;;143727;613;46020;-63
2022/02/17 08:12:50;;;;;;;10.55;6.95;;;;;;;;;;143729;676;46020;-64
2022/02/17 08:15:17;;;;;;;11.00;7.10;;;;;;;;;;143727;570;46020;-64
2022/02/17 08:17:44;;;;;;;11.07;7.15;;;;;;;;;;143726;658;46013;-64
2022/02/17 08:20:11;;;;;;;10.98;7.75;;;;;;;;;;143727;623;46021;-63
2022/02/17 08:22:47;;;;;;;9.80;6.47;;;;;;;;;;143730;605;46012;-63
2022/02/17 08:25:14;;;;;;;11.65;7.40;;;;;;;;;;143726;611;46021;-63
2022/02/17 08:27:41;;;;;;;10.93;6.82;;;;;;;;;;143727;601;46012;-63
2022/02/17 08:30:09;;;;;;;11.05;7.68;;;;;;;;;;143726;727;46020;-63
2022/02/17 08:32:39;;;;;;;11.07;7.70;;;;;;;;;;143728;567;47010;-63
2022/02/17 08:35:08;;;;;;;10.18;6.55;;;;;;;;;;143726;637;46020;-63
2022/02/17 08:37:35;;;;;;;9.73;7.25;;;;;;;;;;143727;616;46012;-63
2022/02/17 08:40:02;;;;;;;9.30;6.00;;;;;;;;;;143728;595;46020;-63
2022/02/17 08:42:30;;;;;;;9.13;6.28;;;;;;;;;;143729;564;46021;-62
2022/02/17 08:44:57;;;;;;;8.95;5.68;;;;;;;;;;143724;819;46020;-62
2022/02/17 08:47:24;;;;;;;9.95;5.93;;;;;;;;;;143727;576;46013;-62
2022/02/17 08:49:51;;;;;;;23.33;14.30;;;;;;;;;;143726;594;46021;-63
2022/02/17 08:52:19;;;;;;;12.55;7.50;;;;;;;;;;143730;632;46012;-64
2022/02/17 08:54:46;;;;;;;22.33;11.95;;;;;;;;;;143727;586;46021;-64
2022/02/17 08:57:13;;;;;;;8.60;5.60;;;;;;;;;;143726;569;46012;-63
2022/02/17 08:59:40;;;;;;;10.00;6.30;;;;;;;;;;143726;574;46020;-63
2022/02/17 09:02:08;;;;;;;12.00;8.88;;;;;;;;;;143730;570;46020;-63
2022/02/17 09:04:37;;;;;;;12.35;7.68;;;;;;;;;;143727;564;46044;-61
2022/02/17 09:07:04;;;;;;;6.57;5.20;;;;;;;;;;143728;623;46012;-61
2022/02/17 09:09:31;;;;;;;12.18;7.03;;;;;;;;;;143727;589;46020;-63
2022/02/17 09:11:58;;;;;;;6.93;5.12;;;;;;;;;;143731;627;46012;-64
2022/02/17 09:14:25;;;;;;;13.82;7.75;;;;;;;;;;143727;610;46022;-64
2022/02/17 09:16:53;;;;;;;12.60;8.25;;;;;;;;;;143726;579;46917;-65
2022/02/17 09:19:21;;;;;;;8.65;6.07;;;;;;;;;;143727;589;46021;-65
2022/02/17 09:21:48;;;;;;;8.52;5.78;;;;;;;;;;143730;574;46020;-65
2022/02/17 09:24:15;;;;;;;12.55;6.30;;;;;;;;;;143725;572;46022;-66
2022/02/17 09:26:45;;;;;;;9.15;6.47;;;;;;;;;;143728;569;46012;-67
2022/02/17 09:29:12;;;;;;;7.47;5.80;;;;;;;;;;143728;591;46020;-67
2022/02/17 09:31:39;;;;;;;8.15;6.18;;;;;;;;;;143730;626;46020;-66
2022/02/17 09:34:07;;;;;;;13.25;6.53;;;;;;;;;;143725;589;46021;-66
2022/02/17 09:36:34;;;;;;;10.40;7.05;;;;;;;;;;143727;587;46031;-66
2022/02/17 09:39:00;;;;;;;7.95;5.82;;;;;;;;;;143728;583;45020;-66
2022/02/17 09:41:28;;;;;;;9.68;6.00;;;;;;;;;;143729;555;46013;-66
2022/02/17 09:44:05;;;;;;;11.52;7.82;;;;;;;;;;143727;604;46022;-66
2022/02/17 09:46:33;;;;;;;9.60;6.47;;;;;;;;;;143727;568;46012;-65
2022/02/17 09:49:03;;;;;;;9.35;7.25;;;;;;;;;;143728;698;46021;-65
2022/02/17 09:51:32;;;;;;;10.00;6.50;;;;;;;;;;143731;805;46012;-65
2022/02/17 09:54:00;;;;;;;9.80;6.65;;;;;;;;;;143727;792;47021;-66
2022/02/17 09:56:27;;;;;;;8.35;5.65;;;;;;;;;;143727;649;46012;-65
2022/02/17 09:58:55;;;;;;;11.50;6.25;;;;;;;;;;143727;654;46020;-63
2022/02/17 10:01:27;;;;;;;9.13;6.32;;;;;;;;;;143730;627;46012;-63
2022/02/17 10:04:16;;;;;;;7.90;5.53;;;;;;;;;;143726;598;47021;-64
2022/02/17 10:06:51;;;;;;;8.55;5.40;;;;;;;;;;143726;593;46012;-64
2022/02/17 10:09:20;;;;;;;8.80;5.05;;;;;;;;;;143726;612;46020;-63
2022/02/17 10:11:49;;;;;;;8.07;5.82;;;;;;;;;;143729;570;46021;-63
2022/02/17 10:14:19;;;;;;;10.50;6.37;;;;;;;;;;143726;580;47020;-63
2022/02/17 10:17:14;;;;;;;7.07;5.47;;;;;;;;;;143728;615;46013;-63
2022/02/17 10:19:47;;;;;;;11.38;6.10;;;;;;;;;;143727;588;46021;-63
2022/02/17 10:22:17;;;;;;;8.73;6.00;;;;;;;;;;143730;564;46020;-64
2022/02/17 10:24:46;;;;;;;8.25;6.37;;;;;;;;;;143723;575;47021;-63
2022/02/17 10:27:25;;;;;;;9.23;5.60;;;;;;;;;;143728;581;46012;-64
2022/02/17 10:30:14;;;;;;;9.35;6.53;;;;;;;;;;143727;602;46020;-64
2022/02/17 10:32:58;;;;;;;7.37;5.25;;;;;;;;;;143731;738;46021;-63
2022/02/17 10:35:26;;;;;;;6.25;4.95;;;;;;;;;;143726;573;46038;-63
2022/02/17 10:37:56;;;;;;;9.45;5.62;;;;;;;;;;143727;579;46022;-63
2022/02/17 10:40:25;;;;;;;7.40;5.25;;;;;;;;;;143725;595;46018;-63
2022/02/17 10:43:07;;;;;;;6.82;4.28;;;;;;;;;;143730;570;46012;-64
2022/02/17 10:45:34;;;;;;;9.05;4.90;;;;;;;;;;143725;612;46018;-63
2022/02/17 10:48:23;;;;;;;6.35;4.00;;;;;;;;;;143730;583;46012;-63
2022/02/17 10:51:08;;;;;;;6.95;4.60;;;;;;;;;;143728;593;46020;-64
2022/02/17 10:53:40;;;;;;;8.07;4.25;;;;;;;;;;143731;571;46015;-64
2022/02/17 10:56:08;;;;;;;8.10;4.50;;;;;;;;;;143727;571;46018;-64
2022/02/17 10:58:46;;;;;;;8.32;5.12;;;;;;;;;;143729;643;46012;-65
2022/02/17 11:01:14;;;;;;;7.80;5.20;;;;;;;;;;143728;585;46018;-63
2022/02/17 11:03:42;;;;;;;6.37;4.30;;;;;;;;;;143731;644;46023;-64
2022/02/17 11:06:16;;;;;;;6.05;4.35;;;;;;;;;;143729;579;46018;-63
2022/02/17 11:08:45;;;;;;;8.73;4.43;;;;;;;;;;143729;614;46013;-64
2022/02/17 11:11:15;;;;;;;5.50;4.30;;;;;;;;;;143726;612;46019;-64
2022/02/17 11:13:47;;;;;;;6.32;4.87;;;;;;;;;;143732;717;46012;-64
2022/02/17 11:16:15;;;;;;;5.32;4.00;;;;;;;;;;143728;632;46019;-63
2022/02/17 11:18:43;;;;;;;4.53;3.78;;;;;;;;;;143728;567;46012;-64
2022/02/17 11:21:15;;;;;;;6.28;4.20;;;;;;;;;;143726;594;46018;-63
2022/02/17 11:23:43;;;;;;;6.70;4.68;;;;;;;;;;143732;589;46012;-64
2022/02/17 11:26:21;;;;;;;6.18;4.50;;;;;;;;;;143726;577;46018;-64
2022/02/17 11:28:48;;;;;;;6.72;4.05;;;;;;;;;;143727;622;46012;-63
2022/02/17 11:31:15;;;;;;;15.15;10.68;;;;;;;;;;143729;622;46018;-64
2022/02/17 11:33:54;;;;;;;15.85;11.68;;;;;;;;;;143732;607;46012;-64
2022/02/17 11:36:32;;;;;;;21.27;14.52;;;;;;;;;;143728;585;46018;-63
2022/02/17 11:39:06;;;;;;;20.60;13.10;;;;;;;;;;143728;576;46013;-64
2022/02/17 11:41:36;;;;;;;20.08;14.27;;;;;;;;;;143728;589;46019;-64
2022/02/17 11:44:20;;;;;;;10.05;7.00;;;;;;;;;;143731;569;46022;-64
2022/02/17 11:46:52;;;;;;;15.03;10.43;;;;;;;;;;143725;601;46019;-64
2022/02/17 11:49:51;;;;;;;11.02;7.93;;;;;;;;;;143728;587;46012;-64
2022/02/17 11:52:22;;;;;;;10.40;6.45;;;;;;;;;;143729;587;46020;-64
2022/02/17 11:55:32;;;;;;;11.32;6.22;;;;;;;;;;143732;570;46013;-64
2022/02/17 11:57:59;;;;;;;7.57;5.68;;;;;;;;;;143726;570;46018;-63
2022/02/17 12:00:34;;;;;;;8.65;6.43;;;;;;;;;;143729;578;46013;-64
2022/02/17 12:03:01;;;;;;;;;;;;;;;;;;143732;983;46019;-64
2022/02/17 12:05:28;;;;;;;10.20;5.78;;;;;;;;;;143737;628;46012;-65
2022/02/17 12:08:18;;;;;;;10.05;6.78;;;;;;;;;;143726;643;46019;-65
2022/02/17 12:10:47;;;;;;;8.77;5.35;;;;;;;;;;143729;581;46012;-64
2022/02/17 12:13:28;;;;;;;8.93;5.60;;;;;;;;;;143728;564;46018;-64
2022/02/17 12:15:55;;;;;;;8.85;6.00;;;;;;;;;;143732;568;46012;-64
2022/02/17 12:18:23;;;;;;;11.20;6.10;;;;;;;;;;143731;610;46018;-64
2022/02/17 12:20:50;;;;;;;11.38;7.40;;;;;;;;;;143728;573;46012;-64
2022/02/17 12:23:18;;;;;;;11.27;7.65;;;;;;;;;;143728;634;46018;-65
2022/02/17 12:25:47;;;;;;;9.35;6.37;;;;;;;;;;143733;613;45023;-65
2022/02/17 12:28:16;;;;;;;10.40;7.15;;;;;;;;;;143728;627;46020;-65
2022/02/17 12:30:52;;;;;;;12.07;6.40;;;;;;;;;;143729;613;46013;-64
2022/02/17 12:33:30;;;;;;;12.37;6.70;;;;;;;;;;143728;580;46021;-65
2022/02/17 12:36:09;;;;;;;10.13;6.07;;;;;;;;;;143732;635;46012;-65
2022/02/17 12:38:37;;;;;;;9.65;5.80;;;;;;;;;;143728;566;46019;-65
2022/02/17 12:41:08;;;;;;;9.13;5.32;;;;;;;;;;143729;632;46012;-65
2022/02/17 12:43:38;;;;;;;7.65;5.30;;;;;;;;;;143728;564;46020;-65
2022/02/17 12:46:15;;;;;;;9.68;6.05;;;;;;;;;;143733;595;45032;-65
2022/02/17 12:48:42;;;;;;;8.95;5.45;;;;;;;;;;143727;569;47018;-65
2022/02/17 12:51:09;;;;;;;10.45;5.93;;;;;;;;;;143729;630;46012;-64
2022/02/17 12:53:52;;;;;;;8.75;5.55;;;;;;;;;;143728;686;46018;-65
2022/02/17 12:56:26;;;;;;;21.25;8.60;;;;;;;;;;143730;571;46023;-65
2022/02/17 12:58:53;;;;;;;12.70;6.35;;;;;;;;;;143727;569;46018;-65
2022/02/17 13:01:25;;;;;;;8.13;5.35;;;;;;;;;;143729;571;46013;-65
2022/02/17 13:03:53;;;;;;;54.28;30.10;;;;;;;;;;143729;569;46018;-65
2022/02/17 13:06:26;;;;;;;56.90;35.90;;;;;;;;;;143729;579;46022;-65
2022/02/17 13:09:13;;;;;;;39.85;26.10;;;;;;;;;;143731;573;46019;-66
2022/02/17 13:11:52;;;;;;;27.73;18.62;;;;;;;;;;143728;604;46009;-66
2022/02/17 13:14:23;;;;;;;23.25;13.43;;;;;;;;;;143726;611;46018;-68
2022/02/17 13:16:53;;;;;;;24.30;14.05;;;;;;;;;;143732;566;46012;-67
2022/02/17 13:19:43;;;;;;;15.88;10.82;;;;;;;;;;143728;569;46018;-67
2022/02/17 13:22:21;;;;;;;19.80;12.43;;;;;;;;;;143729;572;46012;-67
2022/02/17 13:25:10;;;;;;;15.43;9.88;;;;;;;;;;143727;865;46019;-67
2022/02/17 13:27:39;;;;;;;14.57;8.15;;;;;;;;;;143732;597;46022;-67
2022/02/17 13:30:12;;;;;;;17.02;9.38;;;;;;;;;;143727;711;47018;-67
2022/02/17 13:32:42;;;;;;;13.20;9.43;;;;;;;;;;143729;806;46012;-67
2022/02/17 13:35:16;;;;;;;12.48;8.10;;;;;;;;;;143728;604;46018;-67
2022/02/17 13:38:08;;;;;;;15.20;8.88;;;;;;;;;;143729;719;46022;-67
2022/02/17 13:40:45;;;;;;;16.37;8.82;;;;;;;;;;143729;705;46018;-67
2022/02/17 13:43:13;;;;;;;13.43;9.35;;;;;;;;;;143727;564;46022;-67
2022/02/17 13:45:43;;;;;;;11.65;7.47;;;;;;;;;;143728;601;46018;-67
2022/02/17 13:48:36;;;;;;;13.20;7.07;;;;;;;;;;143732;610;46012;-67
2022/02/17 13:51:15;;;;;;;11.43;8.10;;;;;;;;;;143726;594;46018;-67
2022/02/17 13:53:49;;;;;;;13.82;8.27;;;;;;;;;;143729;602;46012;-67
2022/02/17 13:56:21;;;;;;;11.93;8.27;;;;;;;;;;143728;569;46038;-68
2022/02/17 13:58:58;;;;;;;13.05;7.47;;;;;;;;;;143730;569;46012;-69
2022/02/17 14:01:42;;;;;;;11.93;7.45;;;;;;;;;;143726;594;46019;-68
2022/02/17 14:04:32;;;;;;;12.57;7.43;;;;;;;;;;143729;699;46012;-68
2022/02/17 14:07:03;;;;;;;11.90;8.15;;;;;;;;;;143728;575;46018;-68
2022/02/17 14:09:32;;;;;;;14.55;7.80;;;;;;;;;;143729;723;46023;-68
2022/02/17 14:12:00;;;;;;;13.77;6.65;;;;;;;;;;143728;565;46020;-68
2022/02/17 14:14:27;;;;;;;14.27;7.93;;;;;;;;;;143729;569;46012;-69
2022/02/17 14:16:54;;;;;;;11.63;7.75;;;;;;;;;;143729;592;46019;-68
2022/02/17 14:19:21;;;;;;;15.07;7.55;;;;;;;;;;143732;709;46012;-69
2022/02/17 14:21:49;;;;;;;11.02;6.90;;;;;;;;;;143727;600;46018;-69
2022/02/17 14:24:16;;;;;;;9.90;6.47;;;;;;;;;;143729;618;46012;-68
2022/02/17 14:26:42;;;;;;;12.77;6.85;;;;;;;;;;143728;641;46018;-68
2022/02/17 14:29:09;;;;;;;8.70;6.62;;;;;;;;;;143730;680;46022;-68
2022/02/17 14:31:37;;;;;;;11.25;7.15;;;;;;;;;;143727;569;46019;-68
2022/02/17 14:34:07;;;;;;;13.43;8.27;;;;;;;;;;143728;596;46012;-68
2022/02/17 14:36:34;;;;;;;11.60;7.55;;;;;;;;;;143728;597;46018;-68
2022/02/17 14:39:01;;;;;;;12.10;7.85;;;;;;;;;;143731;646;46023;-68
2022/02/17 14:41:28;;;;;;;13.18;7.28;;;;;;;;;;143728;645;46018;-68
2022/02/17 14:43:55;;;;;;;14.40;7.15;;;;;;;;;;143729;610;46010;-68
2022/02/17 14:46:22;;;;;;;11.52;7.25;;;;;;;;;;143728;564;46019;-68
2022/02/17 14:48:49;;;;;;;11.43;7.75;;;;;;;;;;143732;592;46010;-68
2022/02/17 14:51:16;;;;;;;13.90;7.62;;;;;;;;;;143727;585;47018;-68
2022/02/17 14:53:43;;;;;;;12.20;7.85;;;;;;;;;;143729;633;46010;-68
2022/02/17 14:56:11;;;;;;;15.63;7.95;;;;;;;;;;143728;575;46018;-68
2022/02/17 14:58:38;;;;;;;13.52;8.20;;;;;;;;;;143730;633;46022;-69
2022/02/17 15:01:05;;;;;;;13.02;8.32;;;;;;;;;;143728;633;46018;-68
2022/02/17 15:03:32;;;;;;;19.67;9.77;;;;;;;;;;143729;591;46010;-68
2022/02/17 15:05:59;;;;;;;13.60;8.50;;;;;;;;;;143728;614;46018;-67
2022/02/17 15:08:26;;;;;;;12.80;8.45;;;;;;;;;;143732;645;46012;-68
2022/02/17 15:10:54;;;;;;;14.25;9.00;;;;;;;;;;143729;566;46018;-67
2022/02/17 15:13:21;;;;;;;11.23;8.25;;;;;;;;;;143727;593;46878;-68
2022/02/17 15:15:48;;;;;;;14.82;8.93;;;;;;;;;;143728;600;46019;-68
2022/02/17 15:18:15;;;;;;;12.37;9.15;;;;;;;;;;143733;591;45030;-68
2022/02/17 15:20:42;;;;;;;12.18;8.50;;;;;;;;;;143728;613;47018;-68
2022/02/17 15:23:09;;;;;;;11.55;7.97;;;;;;;;;;143728;611;46010;-68
2022/02/17 15:25:36;;;;;;;12.37;7.93;;;;;;;;;;143727;582;46018;-67
2022/02/17 15:28:04;;;;;;;11.10;7.65;;;;;;;;;;143730;585;46010;-67
2022/02/17 15:30:31;;;;;;;12.43;8.38;;;;;;;;;;143726;599;46019;-67
2022/02/17 15:32:59;;;;;;;11.10;7.90;;;;;;;;;;143727;584;46010;-68
2022/02/17 15:35:26;;;;;;;11.40;7.95;;;;;;;;;;143726;571;46018;-67
2022/02/17 15:37:54;;;;;;;12.52;7.53;;;;;;;;;;143730;580;46023;-67
2022/02/17 15:40:22;;;;;;;11.63;8.75;;;;;;;;;;143727;639;46018;-67
2022/02/17 15:42:49;;;;;;;12.25;8.48;;;;;;;;;;143726;572;46010;-67
2022/02/17 15:45:17;;;;;;;13.10;8.02;;;;;;;;;;143726;643;46019;-68
2022/02/17 15:47:45;;;;;;;12.37;9.18;;;;;;;;;;143729;625;46022;-67
2022/02/17 15:50:12;;;;;;;12.57;8.93;;;;;;;;;;143723;586;46020;-67
2022/02/17 15:52:40;;;;;;;14.70;8.80;;;;;;;;;;143727;590;46010;-68
2022/02/17 15:55:07;;;;;;;12.43;8.75;;;;;;;;;;143728;583;46018;-67
2022/02/17 15:57:35;;;;;;;13.07;9.88;;;;;;;;;;143729;599;46022;-68
2022/02/17 16:00:05;;;;;;;12.10;8.05;;;;;;;;;;143727;600;46019;-68
2022/02/17 16:02:32;;;;;;;12.20;7.97;;;;;;;;;;143725;582;46023;-67
2022/02/17 16:04:59;;;;;;;13.62;8.25;;;;;;;;;;143725;679;46018;-68
2022/02/17 16:07:26;;;;;;;15.40;9.88;;;;;;;;;;143731;571;45023;-68
2022/02/17 16:09:53;;;;;;;21.27;11.75;;;;;;;;;;143724;584;46018;-68
2022/02/17 16:12:20;;;;;;;13.00;9.35;;;;;;;;;;143727;569;46010;-67
2022/02/17 16:14:47;;;;;;;14.07;10.05;;;;;;;;;;143725;566;46019;-68
2022/02/17 16:17:15;;;;;;;13.18;10.32;;;;;;;;;;143728;564;46023;-67
2022/02/17 16:19:42;;;;;;;13.77;9.65;;;;;;;;;;143726;564;46018;-68
2022/02/17 16:22:09;;;;;;;15.57;10.35;;;;;;;;;;143726;569;46010;-67
2022/02/17 16:24:37;;;;;;;14.00;9.48;;;;;;;;;;143727;583;46019;-68
2022/02/17 16:27:05;;;;;;;16.20;11.18;;;;;;;;;;143728;616;46022;-68
2022/02/17 16:29:32;;;;;;;15.05;11.43;;;;;;;;;;143726;578;46019;-68
2022/02/17 16:31:59;;;;;;;14.07;10.13;;;;;;;;;;143728;605;46010;-68